sensor_id;sensor_type;location;lat;lon;timestamp;temperature;humidity
14783;DHT22;7483;50.498;12.138;2022-12-18T00:00:06;-8.80;99.90
14783;DHT22;7483;50.498;12.138;2022-12-18T00:02:44;-8.80;99.90
14783;DHT22;7483;50.498;12.138;2022-12-18T00:05:12;-8.70;99.90
14783;DHT22;7483;50.498;12.138;2022-12-18T00:07:40;-8.80;99.90
14783;DHT22;7483;50.498;12.138;2022-12-18T00:10:10;-8.90;99.90
14783;DHT22;7483;50.498;12.138;2022-12-18T00:12:41;-8.80;99.90
14783;DHT22;7483;50.498;12.138;2022-12-18T00:15:09;-8.80;99.90
14783;DHT22;7483;50.498;12.138;2022-12-18T00:17:37;-8.80;99.90
14783;DHT22;7483;50.498;12.138;2022-12-18T00:20:06;-8.80;99.90
14783;DHT22;7483;50.498;12.138;2022-12-18T00:22:35;-8.90;99.90
14783;DHT22;7483;50.498;12.138;2022-12-18T00:25:04;-8.90;99.90
14783;DHT22;7483;50.498;12.138;2022-12-18T00:27:33;-8.90;99.90
14783;DHT22;7483;50.498;12.138;2022-12-18T00:30:02;-8.90;99.90
14783;DHT22;7483;50.498;12.138;2022-12-18T00:32:31;-8.90;99.90
14783;DHT22;7483;50.498;12.138;2022-12-18T00:35:01;-8.80;99.90
14783;DHT22;7483;50.498;12.138;2022-12-18T00:37:30;-8.70;99.90
14783;DHT22;7483;50.498;12.138;2022-12-18T00:39:58;-8.70;99.90
14783;DHT22;7483;50.498;12.138;2022-12-18T00:42:28;-8.70;99.90
14783;DHT22;7483;50.498;12.138;2022-12-18T00:45:11;-8.60;99.90
14783;DHT22;7483;50.498;12.138;2022-12-18T00:47:39;-8.60;99.90
14783;DHT22;7483;50.498;12.138;2022-12-18T00:50:08;-8.50;99.90
14783;DHT22;7483;50.498;12.138;2022-12-18T00:52:40;-8.60;99.90
14783;DHT22;7483;50.498;12.138;2022-12-18T00:55:09;-8.70;99.90
14783;DHT22;7483;50.498;12.138;2022-12-18T00:57:38;-9.00;99.90
14783;DHT22;7483;50.498;12.138;2022-12-18T01:00:09;-9.10;99.90
14783;DHT22;7483;50.498;12.138;2022-12-18T01:02:41;-9.10;99.90
14783;DHT22;7483;50.498;12.138;2022-12-18T01:05:11;-9.00;99.90
14783;DHT22;7483;50.498;12.138;2022-12-18T01:07:40;-9.00;99.90
14783;DHT22;7483;50.498;12.138;2022-12-18T01:10:11;-9.10;99.90
14783;DHT22;7483;50.498;12.138;2022-12-18T01:12:41;-9.10;99.90
14783;DHT22;7483;50.498;12.138;2022-12-18T01:15:12;-9.10;99.90
14783;DHT22;7483;50.498;12.138;2022-12-18T01:17:43;-9.30;99.90
14783;DHT22;7483;50.498;12.138;2022-12-18T01:20:12;-9.30;99.90
14783;DHT22;7483;50.498;12.138;2022-12-18T01:22:40;-9.30;99.90
14783;DHT22;7483;50.498;12.138;2022-12-18T01:25:09;-9.10;99.90
14783;DHT22;7483;50.498;12.138;2022-12-18T01:27:37;-9.20;99.90
14783;DHT22;7483;50.498;12.138;2022-12-18T01:30:06;-9.20;99.90
14783;DHT22;7483;50.498;12.138;2022-12-18T01:32:36;-9.20;99.90
14783;DHT22;7483;50.498;12.138;2022-12-18T01:35:05;-9.10;99.90
14783;DHT22;7483;50.498;12.138;2022-12-18T01:37:34;-9.20;99.90
14783;DHT22;7483;50.498;12.138;2022-12-18T01:40:02;-9.20;99.90
14783;DHT22;7483;50.498;12.138;2022-12-18T01:42:31;-9.10;99.90
14783;DHT22;7483;50.498;12.138;2022-12-18T01:45:06;-9.20;99.90
14783;DHT22;7483;50.498;12.138;2022-12-18T01:47:52;-9.20;99.90
14783;DHT22;7483;50.498;12.138;2022-12-18T01:50:24;-9.10;99.90
14783;DHT22;7483;50.498;12.138;2022-12-18T01:52:56;-9.30;99.90
14783;DHT22;7483;50.498;12.138;2022-12-18T01:55:29;-9.50;99.90
14783;DHT22;7483;50.498;12.138;2022-12-18T01:58:00;-9.50;99.90
14783;DHT22;7483;50.498;12.138;2022-12-18T02:00:29;-9.40;99.90
14783;DHT22;7483;50.498;12.138;2022-12-18T02:02:58;-9.30;99.90
14783;DHT22;7483;50.498;12.138;2022-12-18T02:05:38;-9.20;99.90
14783;DHT22;7483;50.498;12.138;2022-12-18T02:08:22;-9.10;99.90
14783;DHT22;7483;50.498;12.138;2022-12-18T02:11:01;-9.00;99.90
14783;DHT22;7483;50.498;12.138;2022-12-18T02:13:41;-9.30;99.90
14783;DHT22;7483;50.498;12.138;2022-12-18T02:16:20;-9.60;99.90
14783;DHT22;7483;50.498;12.138;2022-12-18T02:19:01;-9.70;99.90
14783;DHT22;7483;50.498;12.138;2022-12-18T02:21:49;-9.70;99.90
14783;DHT22;7483;50.498;12.138;2022-12-18T02:24:32;-9.70;99.90
14783;DHT22;7483;50.498;12.138;2022-12-18T02:27:07;-9.90;99.90
14783;DHT22;7483;50.498;12.138;2022-12-18T02:29:40;-9.90;99.90
14783;DHT22;7483;50.498;12.138;2022-12-18T02:32:25;-10.00;99.90
14783;DHT22;7483;50.498;12.138;2022-12-18T02:34:57;-10.00;99.90
14783;DHT22;7483;50.498;12.138;2022-12-18T02:37:30;-10.00;99.90
14783;DHT22;7483;50.498;12.138;2022-12-18T02:40:04;-9.90;99.90
14783;DHT22;7483;50.498;12.138;2022-12-18T02:42:37;-9.80;99.90
14783;DHT22;7483;50.498;12.138;2022-12-18T02:45:08;-9.90;99.90
14783;DHT22;7483;50.498;12.138;2022-12-18T02:47:39;-9.90;99.90
14783;DHT22;7483;50.498;12.138;2022-12-18T02:50:18;-10.00;99.90
14783;DHT22;7483;50.498;12.138;2022-12-18T02:53:03;-10.00;99.90
14783;DHT22;7483;50.498;12.138;2022-12-18T02:55:46;-10.00;99.90
14783;DHT22;7483;50.498;12.138;2022-12-18T02:58:28;-10.00;99.90
14783;DHT22;7483;50.498;12.138;2022-12-18T03:01:11;-10.00;99.90
14783;DHT22;7483;50.498;12.138;2022-12-18T03:03:47;-10.00;99.90
14783;DHT22;7483;50.498;12.138;2022-12-18T03:06:21;-10.10;99.90
14783;DHT22;7483;50.498;12.138;2022-12-18T03:08:57;-10.10;99.90
14783;DHT22;7483;50.498;12.138;2022-12-18T03:11:31;-10.30;99.90
14783;DHT22;7483;50.498;12.138;2022-12-18T03:14:19;-10.30;99.90
14783;DHT22;7483;50.498;12.138;2022-12-18T03:16:53;-10.50;99.90
14783;DHT22;7483;50.498;12.138;2022-12-18T03:19:28;-10.30;99.90
14783;DHT22;7483;50.498;12.138;2022-12-18T03:22:03;-10.40;99.90
14783;DHT22;7483;50.498;12.138;2022-12-18T03:24:44;-10.50;99.90
14783;DHT22;7483;50.498;12.138;2022-12-18T03:27:18;-10.40;99.90
14783;DHT22;7483;50.498;12.138;2022-12-18T03:29:59;-10.40;99.90
14783;DHT22;7483;50.498;12.138;2022-12-18T03:32:39;-10.20;99.90
14783;DHT22;7483;50.498;12.138;2022-12-18T03:35:14;-10.20;99.90
14783;DHT22;7483;50.498;12.138;2022-12-18T03:37:49;-10.10;99.90
14783;DHT22;7483;50.498;12.138;2022-12-18T03:40:20;-10.00;99.90
14783;DHT22;7483;50.498;12.138;2022-12-18T03:42:59;-10.00;99.90
14783;DHT22;7483;50.498;12.138;2022-12-18T03:45:38;-10.10;99.90
14783;DHT22;7483;50.498;12.138;2022-12-18T03:48:16;-10.20;99.90
14783;DHT22;7483;50.498;12.138;2022-12-18T03:50:52;-10.10;99.90
14783;DHT22;7483;50.498;12.138;2022-12-18T03:53:29;-10.10;99.90
14783;DHT22;7483;50.498;12.138;2022-12-18T03:56:04;-10.10;99.90
14783;DHT22;7483;50.498;12.138;2022-12-18T03:58:38;-10.10;99.90
14783;DHT22;7483;50.498;12.138;2022-12-18T04:01:18;-10.00;99.90
14783;DHT22;7483;50.498;12.138;2022-12-18T04:03:54;-9.90;99.90
14783;DHT22;7483;50.498;12.138;2022-12-18T04:06:25;-10.10;99.90
14783;DHT22;7483;50.498;12.138;2022-12-18T04:08:55;-10.20;99.90
14783;DHT22;7483;50.498;12.138;2022-12-18T04:11:25;-10.20;99.90
14783;DHT22;7483;50.498;12.138;2022-12-18T04:13:55;-10.20;99.90
14783;DHT22;7483;50.498;12.138;2022-12-18T04:16:26;-10.20;99.90
14783;DHT22;7483;50.498;12.138;2022-12-18T04:18:59;-10.30;99.90
14783;DHT22;7483;50.498;12.138;2022-12-18T04:21:31;-10.30;99.90
14783;DHT22;7483;50.498;12.138;2022-12-18T04:23:59;-10.30;99.90
14783;DHT22;7483;50.498;12.138;2022-12-18T04:26:28;-10.30;99.90
14783;DHT22;7483;50.498;12.138;2022-12-18T04:29:11;-10.30;99.90
14783;DHT22;7483;50.498;12.138;2022-12-18T04:31:40;-10.20;99.90
14783;DHT22;7483;50.498;12.138;2022-12-18T04:34:09;-10.00;99.90
14783;DHT22;7483;50.498;12.138;2022-12-18T04:36:43;-9.90;99.90
14783;DHT22;7483;50.498;12.138;2022-12-18T04:39:13;-9.90;99.90
14783;DHT22;7483;50.498;12.138;2022-12-18T04:41:41;-10.20;99.90
14783;DHT22;7483;50.498;12.138;2022-12-18T04:44:12;-10.30;99.90
14783;DHT22;7483;50.498;12.138;2022-12-18T04:46:41;-10.20;99.90
14783;DHT22;7483;50.498;12.138;2022-12-18T04:49:10;-10.30;99.90
14783;DHT22;7483;50.498;12.138;2022-12-18T04:51:39;-10.40;99.90
14783;DHT22;7483;50.498;12.138;2022-12-18T04:54:07;-10.40;99.90
14783;DHT22;7483;50.498;12.138;2022-12-18T04:56:35;-10.40;99.90
14783;DHT22;7483;50.498;12.138;2022-12-18T04:59:03;-10.30;99.90
14783;DHT22;7483;50.498;12.138;2022-12-18T05:01:31;-10.40;99.90
14783;DHT22;7483;50.498;12.138;2022-12-18T05:04:04;-10.50;99.90
14783;DHT22;7483;50.498;12.138;2022-12-18T05:06:32;-10.40;99.90
14783;DHT22;7483;50.498;12.138;2022-12-18T05:09:00;-10.50;99.90
14783;DHT22;7483;50.498;12.138;2022-12-18T05:11:28;-10.40;99.90
14783;DHT22;7483;50.498;12.138;2022-12-18T05:13:56;-10.30;99.90
14783;DHT22;7483;50.498;12.138;2022-12-18T05:16:25;-10.30;99.90
14783;DHT22;7483;50.498;12.138;2022-12-18T05:18:53;-10.40;99.90
14783;DHT22;7483;50.498;12.138;2022-12-18T05:21:22;-10.50;99.90
14783;DHT22;7483;50.498;12.138;2022-12-18T05:23:50;-10.40;99.90
14783;DHT22;7483;50.498;12.138;2022-12-18T05:26:18;-10.30;99.90
14783;DHT22;7483;50.498;12.138;2022-12-18T05:28:46;-10.30;99.90
14783;DHT22;7483;50.498;12.138;2022-12-18T05:31:15;-10.40;99.90
14783;DHT22;7483;50.498;12.138;2022-12-18T05:33:43;-10.40;99.90
14783;DHT22;7483;50.498;12.138;2022-12-18T05:36:11;-10.60;99.90
14783;DHT22;7483;50.498;12.138;2022-12-18T05:38:40;-10.70;99.90
14783;DHT22;7483;50.498;12.138;2022-12-18T05:41:09;-10.70;99.90
14783;DHT22;7483;50.498;12.138;2022-12-18T05:43:38;-10.70;99.90
14783;DHT22;7483;50.498;12.138;2022-12-18T05:46:11;-10.50;99.90
14783;DHT22;7483;50.498;12.138;2022-12-18T05:48:40;-10.40;99.90
14783;DHT22;7483;50.498;12.138;2022-12-18T05:51:10;-10.40;99.90
14783;DHT22;7483;50.498;12.138;2022-12-18T05:53:43;-10.40;99.90
14783;DHT22;7483;50.498;12.138;2022-12-18T05:56:13;-10.30;99.90
14783;DHT22;7483;50.498;12.138;2022-12-18T05:58:43;-10.30;99.90
14783;DHT22;7483;50.498;12.138;2022-12-18T06:01:13;-10.10;99.90
14783;DHT22;7483;50.498;12.138;2022-12-18T06:03:43;-10.10;99.90
14783;DHT22;7483;50.498;12.138;2022-12-18T06:06:14;-10.20;99.90
14783;DHT22;7483;50.498;12.138;2022-12-18T06:08:44;-10.10;99.90
14783;DHT22;7483;50.498;12.138;2022-12-18T06:11:13;-10.10;99.90
14783;DHT22;7483;50.498;12.138;2022-12-18T06:13:43;-10.00;99.90
14783;DHT22;7483;50.498;12.138;2022-12-18T06:16:11;-10.00;99.90
14783;DHT22;7483;50.498;12.138;2022-12-18T06:18:39;-10.10;99.90
14783;DHT22;7483;50.498;12.138;2022-12-18T06:21:08;-10.10;99.90
14783;DHT22;7483;50.498;12.138;2022-12-18T06:23:36;-10.10;99.90
14783;DHT22;7483;50.498;12.138;2022-12-18T06:26:07;-10.10;99.90
14783;DHT22;7483;50.498;12.138;2022-12-18T06:28:38;-10.10;99.90
14783;DHT22;7483;50.498;12.138;2022-12-18T06:31:06;-10.10;99.90
14783;DHT22;7483;50.498;12.138;2022-12-18T06:33:35;-10.20;99.90
14783;DHT22;7483;50.498;12.138;2022-12-18T06:36:07;-10.20;99.90
14783;DHT22;7483;50.498;12.138;2022-12-18T06:38:39;-10.30;99.90
14783;DHT22;7483;50.498;12.138;2022-12-18T06:41:11;-10.30;99.90
14783;DHT22;7483;50.498;12.138;2022-12-18T06:43:40;-10.50;99.90
14783;DHT22;7483;50.498;12.138;2022-12-18T06:46:09;-10.60;99.90
14783;DHT22;7483;50.498;12.138;2022-12-18T06:48:37;-10.60;99.90
14783;DHT22;7483;50.498;12.138;2022-12-18T06:51:06;-10.70;99.90
14783;DHT22;7483;50.498;12.138;2022-12-18T06:53:34;-10.70;99.90
14783;DHT22;7483;50.498;12.138;2022-12-18T06:56:03;-10.80;99.90
14783;DHT22;7483;50.498;12.138;2022-12-18T06:58:38;-10.70;99.90
14783;DHT22;7483;50.498;12.138;2022-12-18T07:01:09;-10.70;99.90
14783;DHT22;7483;50.498;12.138;2022-12-18T07:03:38;-10.80;99.90
14783;DHT22;7483;50.498;12.138;2022-12-18T07:06:13;-10.80;99.90
14783;DHT22;7483;50.498;12.138;2022-12-18T07:08:42;-10.80;99.90
14783;DHT22;7483;50.498;12.138;2022-12-18T07:11:11;-10.70;99.90
14783;DHT22;7483;50.498;12.138;2022-12-18T07:13:41;-10.70;99.90
14783;DHT22;7483;50.498;12.138;2022-12-18T07:16:11;-10.70;99.90
14783;DHT22;7483;50.498;12.138;2022-12-18T07:18:49;-10.80;99.90
14783;DHT22;7483;50.498;12.138;2022-12-18T07:21:19;-10.80;99.90
14783;DHT22;7483;50.498;12.138;2022-12-18T07:23:47;-10.60;99.90
14783;DHT22;7483;50.498;12.138;2022-12-18T07:26:17;-10.50;99.90
14783;DHT22;7483;50.498;12.138;2022-12-18T07:28:48;-10.60;99.90
14783;DHT22;7483;50.498;12.138;2022-12-18T07:31:19;-10.50;99.90
14783;DHT22;7483;50.498;12.138;2022-12-18T07:33:50;-10.60;99.90
14783;DHT22;7483;50.498;12.138;2022-12-18T07:36:18;-10.70;99.90
14783;DHT22;7483;50.498;12.138;2022-12-18T07:38:48;-10.80;99.90
14783;DHT22;7483;50.498;12.138;2022-12-18T07:41:17;-10.80;99.90
14783;DHT22;7483;50.498;12.138;2022-12-18T07:43:45;-10.70;99.90
14783;DHT22;7483;50.498;12.138;2022-12-18T07:46:15;-10.50;99.90
14783;DHT22;7483;50.498;12.138;2022-12-18T07:48:44;-10.40;99.90
14783;DHT22;7483;50.498;12.138;2022-12-18T07:51:16;-10.30;99.90
14783;DHT22;7483;50.498;12.138;2022-12-18T07:53:46;-10.30;99.90
14783;DHT22;7483;50.498;12.138;2022-12-18T07:56:18;-10.50;99.90
14783;DHT22;7483;50.498;12.138;2022-12-18T07:58:53;-10.60;99.90
14783;DHT22;7483;50.498;12.138;2022-12-18T08:01:23;-10.50;99.90
14783;DHT22;7483;50.498;12.138;2022-12-18T08:03:52;-10.40;99.90
14783;DHT22;7483;50.498;12.138;2022-12-18T08:06:20;-10.20;99.90
14783;DHT22;7483;50.498;12.138;2022-12-18T08:08:51;-10.00;99.90
14783;DHT22;7483;50.498;12.138;2022-12-18T08:11:20;-9.90;99.90
14783;DHT22;7483;50.498;12.138;2022-12-18T08:13:50;-9.70;99.90
14783;DHT22;7483;50.498;12.138;2022-12-18T08:16:19;-9.50;99.90
14783;DHT22;7483;50.498;12.138;2022-12-18T08:18:51;-9.40;99.90
14783;DHT22;7483;50.498;12.138;2022-12-18T08:21:22;-9.40;99.90
14783;DHT22;7483;50.498;12.138;2022-12-18T08:23:53;-9.30;99.90
14783;DHT22;7483;50.498;12.138;2022-12-18T08:26:22;-9.20;99.90
14783;DHT22;7483;50.498;12.138;2022-12-18T08:28:53;-9.20;99.90
14783;DHT22;7483;50.498;12.138;2022-12-18T08:31:23;-9.10;99.90
14783;DHT22;7483;50.498;12.138;2022-12-18T08:33:53;-9.00;99.90
14783;DHT22;7483;50.498;12.138;2022-12-18T08:36:23;-9.00;99.90
14783;DHT22;7483;50.498;12.138;2022-12-18T08:38:53;-8.90;99.90
14783;DHT22;7483;50.498;12.138;2022-12-18T08:41:21;-8.80;99.90
14783;DHT22;7483;50.498;12.138;2022-12-18T08:43:49;-8.80;99.90
14783;DHT22;7483;50.498;12.138;2022-12-18T08:46:37;-8.80;99.90
14783;DHT22;7483;50.498;12.138;2022-12-18T08:49:09;-8.90;99.90
14783;DHT22;7483;50.498;12.138;2022-12-18T08:51:39;-8.90;99.90
14783;DHT22;7483;50.498;12.138;2022-12-18T08:54:10;-8.70;99.90
14783;DHT22;7483;50.498;12.138;2022-12-18T08:56:39;-8.60;99.90
14783;DHT22;7483;50.498;12.138;2022-12-18T08:59:08;-8.40;99.90
14783;DHT22;7483;50.498;12.138;2022-12-18T09:01:45;-8.20;99.90
14783;DHT22;7483;50.498;12.138;2022-12-18T09:04:16;-8.00;99.90
14783;DHT22;7483;50.498;12.138;2022-12-18T09:06:44;-7.70;99.90
14783;DHT22;7483;50.498;12.138;2022-12-18T09:09:12;-7.60;99.90
14783;DHT22;7483;50.498;12.138;2022-12-18T09:11:40;-7.50;99.90
14783;DHT22;7483;50.498;12.138;2022-12-18T09:14:09;-7.60;99.90
14783;DHT22;7483;50.498;12.138;2022-12-18T09:16:38;-7.60;99.90
14783;DHT22;7483;50.498;12.138;2022-12-18T09:19:06;-7.40;99.90
14783;DHT22;7483;50.498;12.138;2022-12-18T09:21:35;-7.30;99.90
14783;DHT22;7483;50.498;12.138;2022-12-18T09:24:11;-7.10;99.90
14783;DHT22;7483;50.498;12.138;2022-12-18T09:26:41;-6.90;99.90
14783;DHT22;7483;50.498;12.138;2022-12-18T09:29:13;-6.80;99.90
14783;DHT22;7483;50.498;12.138;2022-12-18T09:31:42;-6.70;99.90
14783;DHT22;7483;50.498;12.138;2022-12-18T09:34:11;-6.60;99.90
14783;DHT22;7483;50.498;12.138;2022-12-18T09:36:40;-6.40;99.90
14783;DHT22;7483;50.498;12.138;2022-12-18T09:39:09;-6.20;99.90
14783;DHT22;7483;50.498;12.138;2022-12-18T09:41:50;-6.10;99.90
14783;DHT22;7483;50.498;12.138;2022-12-18T09:44:23;-5.90;99.90
14783;DHT22;7483;50.498;12.138;2022-12-18T09:47:09;-5.80;99.90
14783;DHT22;7483;50.498;12.138;2022-12-18T09:49:42;-5.60;99.90
14783;DHT22;7483;50.498;12.138;2022-12-18T09:52:17;-5.50;99.90
14783;DHT22;7483;50.498;12.138;2022-12-18T09:54:56;-5.40;99.90
14783;DHT22;7483;50.498;12.138;2022-12-18T09:57:30;-5.20;99.90
14783;DHT22;7483;50.498;12.138;2022-12-18T10:00:09;-5.10;99.90
14783;DHT22;7483;50.498;12.138;2022-12-18T10:02:44;-5.00;99.90
14783;DHT22;7483;50.498;12.138;2022-12-18T10:05:19;-4.90;99.90
14783;DHT22;7483;50.498;12.138;2022-12-18T10:08:02;-4.90;99.90
14783;DHT22;7483;50.498;12.138;2022-12-18T10:10:38;-4.80;99.90
14783;DHT22;7483;50.498;12.138;2022-12-18T10:13:19;-4.60;99.90
14783;DHT22;7483;50.498;12.138;2022-12-18T10:16:02;-4.50;99.90
14783;DHT22;7483;50.498;12.138;2022-12-18T10:18:56;-4.40;99.90
14783;DHT22;7483;50.498;12.138;2022-12-18T10:21:38;-4.30;99.90
14783;DHT22;7483;50.498;12.138;2022-12-18T10:24:22;-4.20;99.90
14783;DHT22;7483;50.498;12.138;2022-12-18T10:26:56;-4.20;99.90
14783;DHT22;7483;50.498;12.138;2022-12-18T10:29:32;-4.10;99.90
14783;DHT22;7483;50.498;12.138;2022-12-18T10:32:00;-4.00;99.90
14783;DHT22;7483;50.498;12.138;2022-12-18T10:34:28;-3.90;99.90
14783;DHT22;7483;50.498;12.138;2022-12-18T10:36:56;-3.80;99.90
14783;DHT22;7483;50.498;12.138;2022-12-18T10:39:26;-3.70;99.90
14783;DHT22;7483;50.498;12.138;2022-12-18T10:42:10;-3.60;99.90
14783;DHT22;7483;50.498;12.138;2022-12-18T10:44:40;-3.50;99.90
14783;DHT22;7483;50.498;12.138;2022-12-18T10:47:12;-3.40;99.90
14783;DHT22;7483;50.498;12.138;2022-12-18T10:49:49;-3.20;99.90
14783;DHT22;7483;50.498;12.138;2022-12-18T10:52:23;-3.10;99.90
14783;DHT22;7483;50.498;12.138;2022-12-18T10:54:57;-2.80;99.90
14783;DHT22;7483;50.498;12.138;2022-12-18T10:57:33;-2.60;99.90
14783;DHT22;7483;50.498;12.138;2022-12-18T11:00:22;-2.50;99.90
14783;DHT22;7483;50.498;12.138;2022-12-18T11:02:53;-2.40;99.90
14783;DHT22;7483;50.498;12.138;2022-12-18T11:05:28;-2.20;99.90
14783;DHT22;7483;50.498;12.138;2022-12-18T11:07:59;-2.20;99.90
14783;DHT22;7483;50.498;12.138;2022-12-18T11:10:32;-2.10;99.90
14783;DHT22;7483;50.498;12.138;2022-12-18T11:13:17;-2.00;99.90
14783;DHT22;7483;50.498;12.138;2022-12-18T11:15:48;-1.90;99.90
14783;DHT22;7483;50.498;12.138;2022-12-18T11:18:19;-1.90;99.90
14783;DHT22;7483;50.498;12.138;2022-12-18T11:20:51;-1.80;99.90
14783;DHT22;7483;50.498;12.138;2022-12-18T11:23:25;-1.70;99.90
14783;DHT22;7483;50.498;12.138;2022-12-18T11:25:57;-1.60;99.90
14783;DHT22;7483;50.498;12.138;2022-12-18T11:28:35;-1.50;99.90
14783;DHT22;7483;50.498;12.138;2022-12-18T11:31:18;-1.40;99.90
14783;DHT22;7483;50.498;12.138;2022-12-18T11:33:54;-1.40;99.90
14783;DHT22;7483;50.498;12.138;2022-12-18T11:36:47;-1.30;99.90
14783;DHT22;7483;50.498;12.138;2022-12-18T11:39:18;-1.10;99.90
14783;DHT22;7483;50.498;12.138;2022-12-18T11:42:05;-1.00;99.90
14783;DHT22;7483;50.498;12.138;2022-12-18T11:44:43;-1.00;99.90
14783;DHT22;7483;50.498;12.138;2022-12-18T11:47:21;-0.90;99.90
14783;DHT22;7483;50.498;12.138;2022-12-18T11:49:55;-0.70;99.90
14783;DHT22;7483;50.498;12.138;2022-12-18T11:52:33;0.10;99.90
14783;DHT22;7483;50.498;12.138;2022-12-18T11:55:11;2.50;99.90
14783;DHT22;7483;50.498;12.138;2022-12-18T11:57:48;3.40;99.90
14783;DHT22;7483;50.498;12.138;2022-12-18T12:00:23;3.70;99.90
14783;DHT22;7483;50.498;12.138;2022-12-18T12:03:19;3.60;99.90
14783;DHT22;7483;50.498;12.138;2022-12-18T12:06:03;3.60;99.90
14783;DHT22;7483;50.498;12.138;2022-12-18T12:08:50;4.50;99.90
14783;DHT22;7483;50.498;12.138;2022-12-18T12:11:35;4.40;99.90
14783;DHT22;7483;50.498;12.138;2022-12-18T12:14:42;3.50;99.90
14783;DHT22;7483;50.498;12.138;2022-12-18T12:17:29;4.40;99.90
14783;DHT22;7483;50.498;12.138;2022-12-18T12:20:08;5.70;99.90
14783;DHT22;7483;50.498;12.138;2022-12-18T12:22:49;6.20;99.90
14783;DHT22;7483;50.498;12.138;2022-12-18T12:25:33;5.50;99.90
14783;DHT22;7483;50.498;12.138;2022-12-18T12:28:15;4.80;99.90
14783;DHT22;7483;50.498;12.138;2022-12-18T12:31:01;5.00;99.90
14783;DHT22;7483;50.498;12.138;2022-12-18T12:33:42;5.10;99.90
14783;DHT22;7483;50.498;12.138;2022-12-18T12:36:22;5.90;99.90
14783;DHT22;7483;50.498;12.138;2022-12-18T12:39:01;6.50;99.90
14783;DHT22;7483;50.498;12.138;2022-12-18T12:41:37;6.50;99.90
14783;DHT22;7483;50.498;12.138;2022-12-18T12:44:27;6.30;99.90
14783;DHT22;7483;50.498;12.138;2022-12-18T12:47:04;5.50;99.90
14783;DHT22;7483;50.498;12.138;2022-12-18T12:49:40;5.70;99.90
14783;DHT22;7483;50.498;12.138;2022-12-18T12:52:20;5.10;99.90
14783;DHT22;7483;50.498;12.138;2022-12-18T12:54:56;4.10;99.90
14783;DHT22;7483;50.498;12.138;2022-12-18T12:57:33;3.70;99.90
14783;DHT22;7483;50.498;12.138;2022-12-18T13:00:08;3.60;99.90
14783;DHT22;7483;50.498;12.138;2022-12-18T13:02:46;3.00;99.90
14783;DHT22;7483;50.498;12.138;2022-12-18T13:05:23;3.10;99.90
14783;DHT22;7483;50.498;12.138;2022-12-18T13:07:59;3.20;99.90
14783;DHT22;7483;50.498;12.138;2022-12-18T13:10:34;3.10;99.90
14783;DHT22;7483;50.498;12.138;2022-12-18T13:13:06;2.30;99.90
14783;DHT22;7483;50.498;12.138;2022-12-18T13:15:41;2.00;99.90
14783;DHT22;7483;50.498;12.138;2022-12-18T13:18:19;1.50;99.90
14783;DHT22;7483;50.498;12.138;2022-12-18T13:20:50;1.00;99.90
14783;DHT22;7483;50.498;12.138;2022-12-18T13:23:36;0.90;99.90
14783;DHT22;7483;50.498;12.138;2022-12-18T13:26:29;0.60;99.90
14783;DHT22;7483;50.498;12.138;2022-12-18T13:29:00;0.40;99.90
14783;DHT22;7483;50.498;12.138;2022-12-18T13:34:30;0.00;99.90
14783;DHT22;7483;50.498;12.138;2022-12-18T13:43:34;-0.30;99.90
14783;DHT22;7483;50.498;12.138;2022-12-18T13:46:21;-0.30;99.90
14783;DHT22;7483;50.498;12.138;2022-12-18T13:48:55;-0.20;99.90
14783;DHT22;7483;50.498;12.138;2022-12-18T13:51:28;-0.30;99.90
14783;DHT22;7483;50.498;12.138;2022-12-18T13:54:00;-0.40;99.90
14783;DHT22;7483;50.498;12.138;2022-12-18T13:56:32;-0.60;99.90
14783;DHT22;7483;50.498;12.138;2022-12-18T13:59:22;-0.70;99.90
14783;DHT22;7483;50.498;12.138;2022-12-18T14:01:53;-0.80;99.90
14783;DHT22;7483;50.498;12.138;2022-12-18T14:04:26;-0.90;99.90
14783;DHT22;7483;50.498;12.138;2022-12-18T14:07:01;-0.90;99.90
14783;DHT22;7483;50.498;12.138;2022-12-18T14:09:36;-1.00;99.90
14783;DHT22;7483;50.498;12.138;2022-12-18T14:12:15;-1.00;99.90
14783;DHT22;7483;50.498;12.138;2022-12-18T14:15:05;-1.10;99.90
14783;DHT22;7483;50.498;12.138;2022-12-18T14:17:39;-1.20;99.90
14783;DHT22;7483;50.498;12.138;2022-12-18T14:20:13;-1.20;99.90
14783;DHT22;7483;50.498;12.138;2022-12-18T14:22:45;-1.30;99.90
14783;DHT22;7483;50.498;12.138;2022-12-18T14:25:19;-1.30;99.90
14783;DHT22;7483;50.498;12.138;2022-12-18T14:27:51;-1.40;99.90
14783;DHT22;7483;50.498;12.138;2022-12-18T14:30:25;-1.40;99.90
14783;DHT22;7483;50.498;12.138;2022-12-18T14:33:02;-1.40;99.90
14783;DHT22;7483;50.498;12.138;2022-12-18T14:35:32;-1.50;99.90
14783;DHT22;7483;50.498;12.138;2022-12-18T14:38:20;-1.50;99.90
14783;DHT22;7483;50.498;12.138;2022-12-18T14:40:55;-1.50;99.90
14783;DHT22;7483;50.498;12.138;2022-12-18T14:43:25;-1.60;99.90
14783;DHT22;7483;50.498;12.138;2022-12-18T14:45:54;-1.60;99.90
14783;DHT22;7483;50.498;12.138;2022-12-18T14:48:33;-1.60;99.90
14783;DHT22;7483;50.498;12.138;2022-12-18T14:51:07;-1.70;99.90
14783;DHT22;7483;50.498;12.138;2022-12-18T14:53:46;-1.70;99.90
14783;DHT22;7483;50.498;12.138;2022-12-18T14:56:22;-1.80;99.90
14783;DHT22;7483;50.498;12.138;2022-12-18T14:58:54;-1.80;99.90
14783;DHT22;7483;50.498;12.138;2022-12-18T15:01:26;-1.70;99.90
14783;DHT22;7483;50.498;12.138;2022-12-18T15:03:57;-1.80;99.90
14783;DHT22;7483;50.498;12.138;2022-12-18T15:06:32;-1.80;99.90
14783;DHT22;7483;50.498;12.138;2022-12-18T15:09:05;-1.90;99.90
14783;DHT22;7483;50.498;12.138;2022-12-18T15:11:49;-1.90;99.90
14783;DHT22;7483;50.498;12.138;2022-12-18T15:14:38;-1.90;99.90
14783;DHT22;7483;50.498;12.138;2022-12-18T15:17:16;-1.90;99.90
14783;DHT22;7483;50.498;12.138;2022-12-18T15:19:46;-1.90;99.90
14783;DHT22;7483;50.498;12.138;2022-12-18T15:22:20;-1.90;99.90
14783;DHT22;7483;50.498;12.138;2022-12-18T15:24:52;-2.00;99.90
14783;DHT22;7483;50.498;12.138;2022-12-18T15:27:23;-2.00;99.90
14783;DHT22;7483;50.498;12.138;2022-12-18T15:32:49;-2.00;99.90
14783;DHT22;7483;50.498;12.138;2022-12-18T15:35:20;-2.00;99.90
14783;DHT22;7483;50.498;12.138;2022-12-18T15:37:49;-2.00;99.90
14783;DHT22;7483;50.498;12.138;2022-12-18T15:40:21;-2.10;99.90
14783;DHT22;7483;50.498;12.138;2022-12-18T15:42:53;-2.10;99.90
14783;DHT22;7483;50.498;12.138;2022-12-18T15:45:40;-2.10;99.90
14783;DHT22;7483;50.498;12.138;2022-12-18T15:48:20;-2.10;99.90
14783;DHT22;7483;50.498;12.138;2022-12-18T15:50:50;-2.20;99.90
14783;DHT22;7483;50.498;12.138;2022-12-18T15:53:20;-2.20;99.90
14783;DHT22;7483;50.498;12.138;2022-12-18T15:55:50;-2.20;99.90
14783;DHT22;7483;50.498;12.138;2022-12-18T15:58:36;-2.20;99.90
14783;DHT22;7483;50.498;12.138;2022-12-18T16:01:04;-2.20;99.90
14783;DHT22;7483;50.498;12.138;2022-12-18T16:03:32;-2.20;99.90
14783;DHT22;7483;50.498;12.138;2022-12-18T16:06:00;-2.20;99.90
14783;DHT22;7483;50.498;12.138;2022-12-18T16:08:30;-2.30;99.90
14783;DHT22;7483;50.498;12.138;2022-12-18T16:11:00;-2.40;99.90
14783;DHT22;7483;50.498;12.138;2022-12-18T16:13:29;-2.40;99.90
14783;DHT22;7483;50.498;12.138;2022-12-18T16:15:57;-2.40;99.90
14783;DHT22;7483;50.498;12.138;2022-12-18T16:18:25;-2.40;99.90